createdAt,value
2023-01-10T00:01:24.862Z,10.81
2023-01-10T00:04:10.426Z,10.91
2023-01-10T00:06:44.559Z,10.96
2023-01-10T00:09:36.145Z,11.06
2023-01-10T00:12:36.714Z,11.13
2023-01-10T00:15:30.679Z,11.21
2023-01-10T00:18:18.703Z,11.15
2023-01-10T00:21:44.062Z,10.18
2023-01-10T00:24:39.208Z,9.09
2023-01-10T00:27:42.214Z,8.80
2023-01-10T00:30:23.116Z,9.60
2023-01-10T00:33:01.413Z,9.87
2023-01-10T00:35:40.139Z,9.97
2023-01-10T00:38:11.277Z,10.00
2023-01-10T00:40:47.237Z,10.00
2023-01-10T00:43:49.236Z,9.90
2023-01-10T00:46:27.935Z,9.91
2023-01-10T00:49:15.369Z,9.99
2023-01-10T00:52:10.150Z,10.11
2023-01-10T00:54:44.497Z,10.21
2023-01-10T00:57:29.421Z,10.27
2023-01-10T01:00:07.756Z,10.26
2023-01-10T01:02:52.208Z,10.33
2023-01-10T01:05:44.744Z,10.44
2023-01-10T01:08:19.044Z,10.46
2023-01-10T01:10:47.555Z,10.38
2023-01-10T01:13:45.314Z,10.36
2023-01-10T01:16:17.444Z,10.31
2023-01-10T01:18:48.789Z,10.27
2023-01-10T01:21:30.110Z,10.20
2023-01-10T01:24:00.615Z,10.17
2023-01-10T01:26:31.816Z,10.16
2023-01-10T01:29:00.454Z,10.17
2023-01-10T01:31:38.762Z,10.19
2023-01-10T01:34:22.808Z,10.18
2023-01-10T01:36:58.658Z,10.17
2023-01-10T01:39:41.636Z,10.19
2023-01-10T01:42:30.534Z,10.21
2023-01-10T01:45:14.072Z,10.20
2023-01-10T01:48:15.797Z,10.15
2023-01-10T01:50:59.560Z,10.10
2023-01-10T01:53:52.042Z,10.08
2023-01-10T01:56:31.438Z,10.04
2023-01-10T01:59:29.444Z,10.07
2023-01-10T02:02:12.181Z,9.99
2023-01-10T02:05:06.238Z,10.03
2023-01-10T02:07:44.088Z,10.07
2023-01-10T02:10:55.078Z,10.01
2023-01-10T02:13:28.479Z,10.02
2023-01-10T02:16:00.661Z,10.05
2023-01-10T02:18:32.104Z,10.10
2023-01-10T02:21:14.637Z,10.19
2023-01-10T02:24:35.613Z,10.21
2023-01-10T02:27:37.679Z,10.27
2023-01-10T02:31:00.323Z,10.39
2023-01-10T02:33:45.481Z,10.50
2023-01-10T02:36:42.899Z,10.57
2023-01-10T02:40:15.990Z,10.67
2023-01-10T02:43:19.052Z,10.74
2023-01-10T02:46:16.325Z,10.79
2023-01-10T02:48:53.996Z,10.80
2023-01-10T02:51:35.694Z,10.79
2023-01-10T02:54:27.819Z,10.79
2023-01-10T02:57:26.810Z,10.77
2023-01-10T03:01:18.626Z,10.76
2023-01-10T03:05:07.653Z,10.73
2023-01-10T03:08:33.333Z,10.72
2023-01-10T03:11:39.812Z,10.64
2023-01-10T03:14:20.730Z,10.49
2023-01-10T03:17:19.771Z,10.44
2023-01-10T03:19:51.491Z,10.41
2023-01-10T03:23:05.779Z,10.33
2023-01-10T03:25:56.927Z,10.35
2023-01-10T03:28:37.463Z,10.33
2023-01-10T03:31:19.368Z,10.34
2023-01-10T03:33:56.516Z,10.38
2023-01-10T03:37:33.757Z,10.37
2023-01-10T03:40:28.284Z,10.30
2023-01-10T03:43:52.917Z,10.27
2023-01-10T03:47:17.299Z,10.17
2023-01-10T03:50:20.188Z,10.09
2023-01-10T03:52:59.975Z,10.08
2023-01-10T03:55:35.272Z,10.10
2023-01-10T03:58:08.310Z,10.05
2023-01-10T04:00:42.066Z,10.03
2023-01-10T04:03:23.343Z,10.03
2023-01-10T04:06:18.119Z,9.98
2023-01-10T04:09:02.830Z,9.95
2023-01-10T04:11:56.125Z,9.97
2023-01-10T04:14:33.346Z,9.95
2023-01-10T04:17:23.338Z,9.95
2023-01-10T04:20:06.473Z,9.99
2023-01-10T04:22:38.263Z,10.02
2023-01-10T04:25:18.460Z,10.03
2023-01-10T04:27:56.284Z,10.09
2023-01-10T04:30:52.505Z,10.12
2023-01-10T04:33:50.158Z,10.13
2023-01-10T04:36:30.050Z,10.10
2023-01-10T04:39:16.671Z,10.14
2023-01-10T04:41:55.284Z,10.19
2023-01-10T04:44:26.580Z,10.26
2023-01-10T04:46:55.156Z,10.31
2023-01-10T04:49:25.990Z,10.30
2023-01-10T04:51:59.489Z,10.32
2023-01-10T04:54:30.941Z,10.35
2023-01-10T04:57:19.589Z,10.38
2023-01-10T04:59:53.497Z,10.42
2023-01-10T05:02:35.071Z,10.45
2023-01-10T05:05:03.469Z,10.42
2023-01-10T05:07:36.552Z,10.44
2023-01-10T05:10:12.762Z,10.46
2023-01-10T05:13:03.480Z,10.47
2023-01-10T05:15:44.694Z,10.49
2023-01-10T05:18:16.243Z,10.56
2023-01-10T05:20:44.520Z,10.59
2023-01-10T05:23:15.253Z,10.61
2023-01-10T05:25:46.858Z,10.60
2023-01-10T05:28:17.453Z,10.54
2023-01-10T05:30:54.514Z,10.52
2023-01-10T05:33:25.065Z,10.49
2023-01-10T05:35:57.004Z,10.42
2023-01-10T05:38:25.382Z,10.42
2023-01-10T05:40:59.021Z,10.46
2023-01-10T05:43:32.478Z,10.53
2023-01-10T05:46:06.047Z,10.57
2023-01-10T05:48:43.058Z,10.61
2023-01-10T05:51:18.735Z,10.65
2023-01-10T05:53:50.329Z,10.70
2023-01-10T05:56:27.033Z,10.80
2023-01-10T05:59:06.624Z,10.91
2023-01-10T06:01:43.760Z,11.02
2023-01-10T06:04:12.543Z,11.11
2023-01-10T06:06:46.564Z,11.21
2023-01-10T06:09:15.204Z,11.31
2023-01-10T06:11:48.866Z,11.38
2023-01-10T06:14:22.847Z,11.45
2023-01-10T06:16:56.988Z,11.38
2023-01-10T06:19:30.376Z,10.58
2023-01-10T06:22:04.567Z,9.67
2023-01-10T06:24:50.573Z,8.94
2023-01-10T06:27:35.834Z,8.65
2023-01-10T06:30:25.923Z,9.39
2023-01-10T06:33:00.912Z,10.03
2023-01-10T06:35:37.874Z,10.34
2023-01-10T06:38:11.735Z,10.53
2023-01-10T06:40:40.391Z,10.64
2023-01-10T06:43:24.542Z,10.72
2023-01-10T06:46:00.440Z,10.81
2023-01-10T06:48:43.788Z,10.92
2023-01-10T06:51:20.092Z,11.05
2023-01-10T06:53:48.774Z,11.14
2023-01-10T06:56:29.576Z,11.22
2023-01-10T06:59:08.477Z,11.30
2023-01-10T07:01:42.466Z,11.37
2023-01-10T07:04:15.952Z,11.35
2023-01-10T07:06:52.671Z,10.69
2023-01-10T07:09:29.751Z,9.69
2023-01-10T07:11:58.645Z,8.91
2023-01-10T07:14:29.274Z,8.50
2023-01-10T07:17:00.528Z,9.02
2023-01-10T07:19:35.242Z,9.60
2023-01-10T07:22:18.164Z,10.05
2023-01-10T07:24:54.634Z,10.36
2023-01-10T07:27:43.382Z,10.49
2023-01-10T07:30:26.720Z,10.59
2023-01-10T07:33:38.817Z,10.69
2023-01-10T07:36:15.601Z,10.78
2023-01-10T07:38:44.376Z,10.85
2023-01-10T07:41:12.849Z,10.91
2023-01-10T07:43:47.447Z,11.00
2023-01-10T07:46:23.252Z,11.11
2023-01-10T07:49:14.196Z,11.22
2023-01-10T07:51:53.362Z,11.33
2023-01-10T07:54:26.972Z,11.41
2023-01-10T07:56:57.699Z,11.46
2023-01-10T08:00:00.280Z,11.46
2023-01-10T08:02:31.715Z,11.52
2023-01-10T08:05:13.112Z,11.60
2023-01-10T08:07:44.714Z,11.69
2023-01-10T08:10:35.939Z,11.45
2023-01-10T08:13:52.872Z,10.35
2023-01-10T08:16:23.378Z,9.46
2023-01-10T08:19:08.095Z,8.93
2023-01-10T08:21:47.164Z,9.28
2023-01-10T08:24:59.972Z,9.91
2023-01-10T08:27:45.206Z,10.40
2023-01-10T08:30:50.324Z,10.68
2023-01-10T08:33:58.323Z,10.93
2023-01-10T08:36:42.300Z,11.13
2023-01-10T08:39:48.767Z,11.25
2023-01-10T08:42:28.717Z,11.40
2023-01-10T08:45:23.097Z,11.54
2023-01-10T08:48:28.240Z,11.66
2023-01-10T08:51:09.482Z,11.73
2023-01-10T08:54:03.494Z,11.76
2023-01-10T08:56:52.663Z,11.29
2023-01-10T08:59:38.501Z,10.31
2023-01-10T09:02:29.614Z,9.54
2023-01-10T09:05:28.526Z,9.47
2023-01-10T09:08:09.197Z,10.18
2023-01-10T09:10:48.463Z,10.68
2023-01-10T09:13:37.281Z,11.03
2023-01-10T09:16:17.026Z,11.25
2023-01-10T09:19:18.443Z,11.40
2023-01-10T09:22:04.425Z,11.52
2023-01-10T09:24:37.679Z,11.62
2023-01-10T09:27:11.692Z,11.73
2023-01-10T09:29:48.120Z,11.83
2023-01-10T09:32:20.018Z,11.92
2023-01-10T09:34:48.720Z,11.92
2023-01-10T09:37:19.944Z,11.24
2023-01-10T09:39:54.068Z,10.28
2023-01-10T09:42:40.051Z,9.51
2023-01-10T09:45:24.859Z,9.18
2023-01-10T09:48:25.942Z,9.85
2023-01-10T09:51:23.960Z,10.52
2023-01-10T09:54:11.325Z,10.93
2023-01-10T09:56:57.653Z,11.12
2023-01-10T09:59:55.211Z,11.22
2023-01-10T10:02:52.819Z,11.28
2023-01-10T10:05:28.481Z,11.34
2023-01-10T10:08:19.429Z,11.38
2023-01-10T10:11:23.610Z,11.45
2023-01-10T10:14:53.717Z,11.60
2023-01-10T10:18:17.166Z,11.72
2023-01-10T10:21:27.360Z,11.83
2023-01-10T10:24:24.856Z,11.93
2023-01-10T10:27:40.413Z,11.94
2023-01-10T10:30:54.489Z,11.96
2023-01-10T10:33:48.861Z,12.05
2023-01-10T10:36:38.249Z,12.11
2023-01-10T10:39:19.700Z,12.12
2023-01-10T10:41:58.200Z,12.11
2023-01-10T10:45:15.163Z,12.15
2023-01-10T10:48:34.330Z,12.21
2023-01-10T10:51:13.228Z,12.32
2023-01-10T10:54:09.689Z,11.94
2023-01-10T10:56:56.431Z,10.95
2023-01-10T10:59:40.153Z,10.19
2023-01-10T11:02:25.340Z,9.74
2023-01-10T11:05:21.083Z,10.25
2023-01-10T11:07:54.726Z,10.94
2023-01-10T11:10:41.839Z,11.34
2023-01-10T11:13:48.949Z,11.63
2023-01-10T11:16:49.396Z,11.89
2023-01-10T11:19:25.074Z,12.05
2023-01-10T11:22:03.825Z,12.14
2023-01-10T11:25:13.371Z,12.21
2023-01-10T11:28:12.766Z,12.27
2023-01-10T11:30:50.206Z,12.29
2023-01-10T11:33:40.223Z,12.32
2023-01-10T11:37:16.749Z,12.38
2023-01-10T11:40:37.947Z,12.51
2023-01-10T11:44:00.124Z,12.15
2023-01-10T11:46:34.085Z,10.83
2023-01-10T11:50:07.077Z,10.43
2023-01-10T11:52:47.905Z,10.91
2023-01-10T11:55:48.173Z,11.16
2023-01-10T11:58:44.009Z,11.25
2023-01-10T12:02:12.481Z,11.42
2023-01-10T12:05:09.861Z,11.48
2023-01-10T12:08:46.526Z,11.62
2023-01-10T12:12:07.987Z,11.76
2023-01-10T12:16:11.372Z,11.91
2023-01-10T12:18:57.332Z,12.02
2023-01-10T12:22:48.346Z,11.94
2023-01-10T12:26:12.161Z,11.77
2023-01-10T12:29:39.080Z,11.66
2023-01-10T12:32:37.042Z,11.62
2023-01-10T12:35:27.156Z,11.63
2023-01-10T12:38:46.304Z,11.61
2023-01-10T12:43:07.948Z,11.61
2023-01-10T12:46:21.841Z,11.62
2023-01-10T12:49:47.286Z,11.70
2023-01-10T12:53:09.438Z,11.71
2023-01-10T12:55:45.052Z,11.79
2023-01-10T12:58:46.114Z,11.90
2023-01-10T13:01:35.192Z,12.05
2023-01-10T13:04:29.839Z,12.13
2023-01-10T13:07:46.464Z,12.21
2023-01-10T13:10:36.109Z,12.26
2023-01-10T13:14:03.424Z,12.29
2023-01-10T13:16:50.587Z,12.40
2023-01-10T13:19:30.166Z,12.43
2023-01-10T13:22:29.952Z,12.41
2023-01-10T13:25:00.807Z,12.47
2023-01-10T13:28:05.662Z,12.52
2023-01-10T13:30:45.364Z,12.03
2023-01-10T13:34:09.186Z,11.04
2023-01-10T13:37:27.117Z,9.98
2023-01-10T13:40:10.038Z,9.24
2023-01-10T13:43:41.704Z,9.06
2023-01-10T13:46:57.656Z,9.88
2023-01-10T13:50:18.903Z,10.47
2023-01-10T13:53:43.401Z,10.81
2023-01-10T13:56:43.105Z,11.10
2023-01-10T14:00:38.643Z,11.30
2023-01-10T14:03:38.849Z,11.47
2023-01-10T14:06:44.945Z,11.51
2023-01-10T14:09:45.313Z,11.61
2023-01-10T14:13:15.891Z,11.74
2023-01-10T14:16:01.893Z,11.89
2023-01-10T14:18:42.635Z,11.98
2023-01-10T14:21:24.941Z,12.01
2023-01-10T14:24:54.781Z,12.02
2023-01-10T14:28:05.748Z,12.04
2023-01-10T14:31:52.957Z,12.02
2023-01-10T14:34:39.367Z,11.98
2023-01-10T14:37:53.718Z,11.95
2023-01-10T14:40:43.620Z,11.96
2023-01-10T14:43:27.030Z,11.95
2023-01-10T14:46:21.158Z,11.84
2023-01-10T14:49:52.616Z,11.73
2023-01-10T14:52:25.752Z,11.59
2023-01-10T14:55:21.488Z,11.42
2023-01-10T14:58:02.572Z,11.29
2023-01-10T15:01:03.051Z,11.15
2023-01-10T15:03:38.558Z,11.05
2023-01-10T15:06:13.569Z,11.03
2023-01-10T15:08:47.713Z,10.89
2023-01-10T15:11:31.637Z,10.78
2023-01-10T15:14:26.342Z,10.86
2023-01-10T15:17:06.496Z,10.71
2023-01-10T15:19:42.065Z,10.76
2023-01-10T15:22:57.163Z,10.77
2023-01-10T15:26:21.005Z,10.78
2023-01-10T15:29:34.076Z,10.61
2023-01-10T15:32:51.406Z,10.60
2023-01-10T15:35:49.381Z,10.54
2023-01-10T15:38:37.618Z,10.61
2023-01-10T15:41:43.782Z,10.63
2023-01-10T15:44:57.019Z,10.52
2023-01-10T15:47:41.426Z,10.22
2023-01-10T15:50:34.168Z,10.03
2023-01-10T15:53:27.504Z,9.84
2023-01-10T15:56:56.572Z,9.73
2023-01-10T15:59:46.968Z,9.81
2023-01-10T16:02:56.550Z,9.87
2023-01-10T16:06:13.256Z,9.97
2023-01-10T16:09:03.463Z,9.98
2023-01-10T16:12:23.405Z,9.97
2023-01-10T16:15:15.132Z,10.01
2023-01-10T16:18:29.271Z,10.11
2023-01-10T16:21:24.067Z,10.09
2023-01-10T16:24:43.768Z,9.96
2023-01-10T16:27:57.729Z,9.98
2023-01-10T16:30:47.064Z,10.06
2023-01-10T16:33:27.798Z,9.97
2023-01-10T16:36:02.766Z,9.86
2023-01-10T16:38:34.315Z,9.90
2023-01-10T16:41:44.880Z,9.99
2023-01-10T16:44:19.343Z,10.06
2023-01-10T16:46:53.681Z,9.89
2023-01-10T16:49:26.603Z,9.66
2023-01-10T16:51:58.266Z,9.67
2023-01-10T16:54:49.391Z,9.79
2023-01-10T16:57:23.056Z,9.84
2023-01-10T16:59:54.434Z,9.71
2023-01-10T17:02:25.047Z,9.60
2023-01-10T17:05:04.459Z,9.55
2023-01-10T17:07:36.651Z,9.54
2023-01-10T17:10:11.090Z,9.60
2023-01-10T17:12:45.939Z,9.55
2023-01-10T17:15:19.416Z,9.63
2023-01-10T17:17:52.585Z,9.72
2023-01-10T17:20:25.777Z,9.72
2023-01-10T17:23:01.482Z,9.90
2023-01-10T17:25:50.997Z,9.98
2023-01-10T17:28:28.807Z,9.98
2023-01-10T17:30:57.897Z,9.89
2023-01-10T17:33:35.291Z,9.93
2023-01-10T17:36:09.596Z,9.84
2023-01-10T17:39:01.125Z,9.84
2023-01-10T17:41:38.614Z,9.87
2023-01-10T17:44:07.192Z,9.85
2023-01-10T17:46:40.277Z,9.83
2023-01-10T17:49:19.733Z,9.81
2023-01-10T17:51:59.973Z,9.72
2023-01-10T17:54:29.371Z,9.69
2023-01-10T17:57:12.252Z,9.70
2023-01-10T18:00:04.491Z,9.75
2023-01-10T18:02:39.725Z,9.80
2023-01-10T18:05:11.727Z,9.83
2023-01-10T18:07:49.434Z,9.97
2023-01-10T18:10:28.245Z,10.02
2023-01-10T18:13:02.521Z,10.02
2023-01-10T18:15:31.970Z,10.08
2023-01-10T18:18:14.684Z,10.11
2023-01-10T18:20:44.391Z,10.10
2023-01-10T18:23:23.104Z,10.10
2023-01-10T18:26:08.633Z,10.17
2023-01-10T18:29:02.861Z,10.20
2023-01-10T18:31:37.802Z,10.19
2023-01-10T18:34:27.611Z,10.15
2023-01-10T18:37:21.478Z,10.18
2023-01-10T18:39:50.344Z,10.20
2023-01-10T18:42:34.799Z,10.15
2023-01-10T18:45:05.616Z,10.01
2023-01-10T18:47:37.599Z,9.93
2023-01-10T18:50:28.983Z,9.79
2023-01-10T18:53:20.860Z,9.59
2023-01-10T18:56:01.399Z,9.55
2023-01-10T18:58:38.363Z,9.56
2023-01-10T19:01:12.131Z,9.63
2023-01-10T19:03:44.052Z,9.71
2023-01-10T19:06:44.293Z,9.78
2023-01-10T19:09:18.367Z,9.83
2023-01-10T19:12:09.039Z,9.90
2023-01-10T19:14:54.005Z,9.87
2023-01-10T19:17:29.470Z,9.87
2023-01-10T19:20:18.876Z,9.86
2023-01-10T19:23:09.912Z,9.97
2023-01-10T19:25:47.703Z,9.96
2023-01-10T19:28:20.600Z,10.00
2023-01-10T19:31:04.636Z,10.08
2023-01-10T19:33:47.830Z,10.00
2023-01-10T19:36:29.625Z,9.87
2023-01-10T19:39:07.519Z,9.84
2023-01-10T19:41:48.337Z,9.80
2023-01-10T19:44:24.673Z,9.71
2023-01-10T19:47:16.076Z,9.67
2023-01-10T19:50:14.996Z,9.54
2023-01-10T19:52:52.798Z,9.53
2023-01-10T19:55:29.537Z,9.49
2023-01-10T19:58:22.504Z,9.34
2023-01-10T20:00:51.379Z,9.30
2023-01-10T20:03:22.734Z,9.31
2023-01-10T20:06:18.046Z,9.39
2023-01-10T20:09:25.739Z,9.44
2023-01-10T20:12:02.440Z,9.39
2023-01-10T20:14:51.785Z,9.37
2023-01-10T20:17:45.445Z,9.47
2023-01-10T20:20:31.744Z,9.56
2023-01-10T20:23:22.781Z,9.60
2023-01-10T20:26:31.268Z,9.67
2023-01-10T20:29:10.422Z,9.71
2023-01-10T20:32:03.354Z,9.64
2023-01-10T20:34:47.449Z,9.63
2023-01-10T20:37:27.816Z,9.77
2023-01-10T20:40:26.425Z,9.88
2023-01-10T20:43:06.604Z,9.96
2023-01-10T20:46:00.420Z,10.07
2023-01-10T20:49:10.639Z,10.16
2023-01-10T20:52:05.125Z,10.23
2023-01-10T20:54:54.592Z,10.28
2023-01-10T20:57:30.960Z,10.32
2023-01-10T21:00:08.450Z,10.33
2023-01-10T21:02:59.771Z,10.27
2023-01-10T21:05:36.340Z,10.16
2023-01-10T21:08:31.847Z,10.14
2023-01-10T21:11:21.436Z,10.15
2023-01-10T21:14:13.247Z,10.09
2023-01-10T21:16:49.310Z,10.12
2023-01-10T21:19:32.428Z,10.14
2023-01-10T21:22:03.674Z,10.16
2023-01-10T21:24:34.722Z,10.18
2023-01-10T21:27:18.696Z,10.23
2023-01-10T21:30:07.578Z,10.23
2023-01-10T21:33:02.651Z,10.22
2023-01-10T21:35:33.962Z,10.18
2023-01-10T21:38:13.296Z,10.10
2023-01-10T21:40:44.341Z,10.16
2023-01-10T21:43:17.921Z,10.12
2023-01-10T21:46:26.750Z,10.08
2023-01-10T21:49:13.981Z,9.91
2023-01-10T21:51:45.272Z,9.96
2023-01-10T21:54:25.328Z,9.87
2023-01-10T21:56:56.876Z,9.83
2023-01-10T21:59:37.723Z,9.79
2023-01-10T22:02:15.916Z,9.74
2023-01-10T22:05:10.399Z,9.73
2023-01-10T22:08:15.537Z,9.65
2023-01-10T22:11:05.829Z,9.66
2023-01-10T22:13:39.328Z,9.78
2023-01-10T22:16:30.265Z,9.89
2023-01-10T22:19:02.038Z,9.97
2023-01-10T22:21:47.268Z,9.97
2023-01-10T22:24:18.739Z,10.00
2023-01-10T22:26:54.563Z,10.03
2023-01-10T22:29:38.612Z,10.07
2023-01-10T22:32:25.219Z,10.14
2023-01-10T22:34:58.327Z,10.23
2023-01-10T22:37:29.170Z,10.30
2023-01-10T22:40:05.297Z,10.28
2023-01-10T22:42:39.818Z,10.23
2023-01-10T22:45:31.792Z,10.17
2023-01-10T22:48:31.718Z,10.10
2023-01-10T22:51:07.724Z,10.03
2023-01-10T22:53:59.554Z,9.92
2023-01-10T22:56:39.024Z,9.89
2023-01-10T22:59:15.288Z,9.90
2023-01-10T23:01:48.942Z,9.95
2023-01-10T23:04:22.337Z,10.01
2023-01-10T23:07:01.552Z,10.11
2023-01-10T23:09:32.722Z,10.18
2023-01-10T23:12:27.108Z,10.29
2023-01-10T23:15:32.048Z,10.26
2023-01-10T23:18:18.139Z,10.27
2023-01-10T23:21:20.431Z,10.35
2023-01-10T23:24:53.500Z,10.46
2023-01-10T23:27:38.976Z,10.60
2023-01-10T23:30:22.491Z,10.70
2023-01-10T23:33:17.105Z,10.80
2023-01-10T23:35:59.107Z,10.61
2023-01-10T23:38:33.123Z,9.62
2023-01-10T23:41:04.255Z,8.72
2023-01-10T23:43:42.689Z,8.00
2023-01-10T23:46:48.967Z,7.38
2023-01-10T23:49:27.242Z,7.46
2023-01-10T23:52:17.070Z,8.13
2023-01-10T23:55:01.114Z,8.66
2023-01-10T23:57:45.658Z,8.99
